Time;durP1;ratioP1;P1;durP2;ratioP2;P2;SDS_P1;SDS_P2;PMS_P1;PMS_P2;Temp;Humidity;BMP_temperature;BMP_pressure;BME280_temperature;BME280_humidity;BME280_pressure;Samples;Min_cycle;Max_cycle;Signal;HPM_P1;HPM_P2
2022/01/10 00:01:28;;;;;;;4.95;2.78;;;9.50;99.90;;;;;;5113752;28;20046;-61
2022/01/10 00:03:56;;;;;;;5.63;2.83;;;9.50;99.90;;;;;;5113135;28;20039;-61
2022/01/10 00:06:24;;;;;;;4.65;1.95;;;9.60;99.90;;;;;;5111064;28;20050;-61
2022/01/10 00:08:51;;;;;;;6.90;3.78;;;9.60;99.90;;;;;;5102007;28;20051;-61
2022/01/10 00:11:19;;;;;;;8.38;2.70;;;9.60;99.90;;;;;;5096141;28;20042;-61
2022/01/10 00:13:46;;;;;;;6.25;2.90;;;9.60;99.90;;;;;;5110541;28;20102;-61
2022/01/10 00:16:14;;;;;;;5.70;2.15;;;9.60;99.90;;;;;;5078274;28;20526;-60
2022/01/10 00:18:42;;;;;;;4.20;2.75;;;9.60;99.90;;;;;;5108232;28;20502;-60
2022/01/10 00:21:09;;;;;;;7.07;2.92;;;9.50;99.90;;;;;;5094502;28;20044;-61
2022/01/10 00:23:37;;;;;;;5.82;2.10;;;9.60;99.90;;;;;;5109098;28;20090;-61
2022/01/10 00:26:05;;;;;;;3.42;1.60;;;9.60;99.90;;;;;;5103131;27;20058;-61
2022/01/10 00:28:32;;;;;;;6.60;2.40;;;9.60;99.90;;;;;;5108195;27;20043;-60
2022/01/10 00:31:00;;;;;;;4.53;1.92;;;9.60;99.90;;;;;;5105688;28;20140;-61
2022/01/10 00:33:27;;;;;;;5.50;2.08;;;9.60;99.90;;;;;;5090353;28;20056;-61
2022/01/10 00:35:55;;;;;;;12.18;2.30;;;9.70;99.90;;;;;;5109529;28;20052;-61
2022/01/10 00:38:23;;;;;;;4.32;2.03;;;9.70;99.90;;;;;;5112519;28;20549;-61
2022/01/10 00:40:51;;;;;;;5.18;2.53;;;9.70;99.90;;;;;;5101741;28;20044;-61
2022/01/10 00:43:30;;;;;;;5.35;1.50;;;9.70;99.90;;;;;;5067938;28;20040;-61
2022/01/10 00:46:00;;;;;;;7.25;2.42;;;9.70;99.90;;;;;;5094184;28;20044;-60
2022/01/10 00:48:28;;;;;;;4.35;1.85;;;9.60;99.90;;;;;;5109217;28;20044;-60
2022/01/10 00:50:56;;;;;;;3.00;1.70;;;9.60;99.90;;;;;;5079080;28;20055;-60
2022/01/10 00:53:25;;;;;;;3.38;1.90;;;9.60;99.90;;;;;;5095056;28;20036;-60
2022/01/10 00:55:53;;;;;;;2.85;1.90;;;9.60;99.90;;;;;;5111506;28;20544;-60
2022/01/10 00:58:20;;;;;;;5.93;1.95;;;9.60;99.90;;;;;;5110791;28;20038;-60
2022/01/10 01:00:48;;;;;;;7.53;2.67;;;9.60;99.90;;;;;;5088569;28;20062;-61
2022/01/10 01:03:15;;;;;;;3.75;1.52;;;9.60;99.90;;;;;;5092734;28;20031;-60
2022/01/10 01:05:44;;;;;;;2.70;1.42;;;9.60;99.90;;;;;;5095924;28;20412;-61
2022/01/10 01:08:13;;;;;;;4.60;2.10;;;9.50;99.90;;;;;;5103735;28;20047;-61
2022/01/10 01:11:10;;;;;;;4.60;1.70;;;9.50;99.90;;;;;;5076495;28;20051;-61
2022/01/10 01:13:50;;;;;;;4.10;1.45;;;9.50;99.90;;;;;;5083929;28;20060;-60
2022/01/10 01:16:30;;;;;;;3.40;1.40;;;9.40;99.90;;;;;;5102521;28;20036;-61
2022/01/10 01:24:34;;;;;;;2.25;1.15;;;9.40;99.90;;;;;;5111214;28;20405;-60
2022/01/10 01:27:02;;;;;;;2.05;1.35;;;9.50;99.90;;;;;;5094262;28;20097;-60
2022/01/10 01:29:30;;;;;;;1.85;1.00;;;9.60;99.90;;;;;;5094405;28;20027;-60
2022/01/10 01:31:58;;;;;;;3.55;1.48;;;9.50;99.90;;;;;;5111911;28;20096;-61
2022/01/10 01:34:26;;;;;;;3.10;1.77;;;9.50;99.90;;;;;;5094460;28;20036;-61
2022/01/10 01:36:55;;;;;;;2.75;1.67;;;9.40;99.90;;;;;;5107569;28;20396;-61
2022/01/10 01:39:25;;;;;;;2.75;1.30;;;9.40;99.90;;;;;;5091083;28;20040;-61
2022/01/10 01:42:04;;;;;;;2.05;1.27;;;9.50;99.90;;;;;;5086425;28;20101;-61
2022/01/10 01:44:32;;;;;;;1.98;1.40;;;9.40;99.90;;;;;;5094810;28;20059;-60
2022/01/10 01:47:01;;;;;;;3.47;2.13;;;9.50;99.90;;;;;;5093137;28;20524;-61
2022/01/10 01:49:29;;;;;;;3.33;1.10;;;9.50;99.90;;;;;;5075489;28;20101;-60
2022/01/10 01:51:56;;;;;;;4.65;1.40;;;9.50;99.90;;;;;;5093646;28;20055;-60
2022/01/10 01:54:24;;;;;;;1.40;1.08;;;9.40;99.90;;;;;;5075736;28;20474;-61
2022/01/10 01:56:52;;;;;;;2.83;1.38;;;9.50;99.90;;;;;;5059376;28;20453;-60
2022/01/10 01:59:20;;;;;;;1.70;0.98;;;9.60;99.90;;;;;;5058943;28;20048;-60
2022/01/10 02:01:47;;;;;;;6.97;1.80;;;9.60;99.90;;;;;;5075879;28;20422;-60
2022/01/10 02:04:15;;;;;;;2.67;1.50;;;9.60;99.90;;;;;;5076065;28;20436;-60
2022/01/10 02:06:45;;;;;;;2.30;1.25;;;9.60;99.90;;;;;;5059464;28;20051;-60
2022/01/10 02:09:14;;;;;;;2.97;0.93;;;9.60;99.90;;;;;;5093792;28;20036;-60
2022/01/10 02:11:45;;;;;;;2.63;1.40;;;9.60;99.90;;;;;;5075765;28;20529;-60
2022/01/10 02:14:17;;;;;;;4.53;1.63;;;9.60;99.90;;;;;;5075730;28;20115;-60
2022/01/10 02:16:53;;;;;;;2.08;1.23;;;9.40;99.90;;;;;;5075720;28;20508;-60
2022/01/10 02:19:31;;;;;;;2.97;1.20;;;9.50;99.90;;;;;;5075706;28;20043;-60
2022/01/10 02:21:59;;;;;;;1.38;1.00;;;9.50;99.90;;;;;;5075630;28;20069;-60
2022/01/10 02:24:33;;;;;;;2.10;1.40;;;9.60;99.90;;;;;;5075761;28;20564;-60
2022/01/10 02:27:03;;;;;;;3.47;1.42;;;9.60;99.90;;;;;;5075557;28;20089;-60
2022/01/10 02:29:36;;;;;;;4.45;1.40;;;9.50;99.90;;;;;;5075565;28;20040;-60
2022/01/10 02:32:04;;;;;;;1.98;1.23;;;9.50;99.90;;;;;;5093663;28;20071;-60
2022/01/10 02:34:32;;;;;;;5.35;1.30;;;9.50;99.90;;;;;;5075570;28;20036;-60
2022/01/10 02:37:00;;;;;;;2.58;1.45;;;9.60;99.90;;;;;;5075858;28;20131;-60
2022/01/10 02:39:32;;;;;;;3.13;1.52;;;9.60;99.90;;;;;;5075507;28;20039;-60
2022/01/10 02:41:59;;;;;;;2.65;1.67;;;9.60;99.90;;;;;;5075489;28;20556;-60
2022/01/10 02:44:29;;;;;;;5.88;2.00;;;9.70;99.90;;;;;;5075443;28;20081;-60
2022/01/10 02:46:57;;;;;;;3.72;1.95;;;9.60;99.90;;;;;;5075452;28;20032;-60
2022/01/10 02:49:32;;;;;;;3.38;1.90;;;9.60;99.90;;;;;;5075407;28;20093;-60
2022/01/10 02:52:02;;;;;;;3.28;2.40;;;9.40;99.90;;;;;;5074717;28;20147;-60
2022/01/10 02:54:31;;;;;;;3.20;1.30;;;9.20;99.90;;;;;;5074544;28;20040;-60
2022/01/10 02:57:03;;;;;;;8.10;2.55;;;9.20;99.90;;;;;;5059935;28;20056;-60
2022/01/10 02:59:31;;;;;;;4.25;2.05;;;9.10;99.90;;;;;;5077828;28;20032;-60
2022/01/10 03:01:58;;;;;;;3.75;2.17;;;9.10;99.90;;;;;;5077925;28;20040;-60
2022/01/10 03:04:27;;;;;;;3.70;2.15;;;9.10;99.90;;;;;;5077953;28;20085;-61
2022/01/10 03:06:55;;;;;;;3.88;1.90;;;9.10;99.90;;;;;;5077734;28;20036;-60
2022/01/10 03:09:22;;;;;;;4.97;1.70;;;9.10;99.90;;;;;;5060868;28;20054;-60
2022/01/10 03:11:50;;;;;;;6.15;2.13;;;9.20;99.90;;;;;;5061008;28;20425;-60
2022/01/10 03:14:18;;;;;;;3.70;1.55;;;9.20;99.90;;;;;;5061060;28;20102;-60
2022/01/10 03:16:46;;;;;;;5.45;1.90;;;9.30;99.90;;;;;;5077781;28;20044;-61
2022/01/10 03:19:13;;;;;;;3.95;2.35;;;9.40;99.90;;;;;;5095906;28;20436;-61
2022/01/10 03:21:41;;;;;;;3.47;1.65;;;9.50;99.90;;;;;;5078109;28;20494;-60
2022/01/10 03:24:08;;;;;;;8.65;2.40;;;9.50;99.90;;;;;;5095510;28;20051;-61
2022/01/10 03:26:36;;;;;;;4.70;2.17;;;9.50;99.90;;;;;;5060769;28;20046;-61
2022/01/10 03:29:05;;;;;;;3.10;2.45;;;9.50;99.90;;;;;;5077359;28;20036;-61
2022/01/10 03:31:32;;;;;;;5.63;1.65;;;9.50;99.90;;;;;;5077511;28;20123;-60
2022/01/10 03:34:02;;;;;;;3.05;1.63;;;9.50;99.90;;;;;;5077551;28;20040;-61
2022/01/10 03:36:31;;;;;;;3.75;1.65;;;9.50;99.90;;;;;;5077290;28;20066;-61
2022/01/10 03:38:58;;;;;;;3.42;1.98;;;9.40;99.90;;;;;;5077249;28;20051;-61
2022/01/10 03:41:27;;;;;;;1.42;1.10;;;9.40;99.90;;;;;;5077274;28;20464;-61
2022/01/10 03:43:54;;;;;;;1.60;1.30;;;9.30;99.90;;;;;;5077474;28;20040;-61
2022/01/10 03:46:22;;;;;;;4.40;1.65;;;9.30;99.90;;;;;;5060365;28;20074;-61
2022/01/10 03:48:51;;;;;;;3.85;1.55;;;9.30;99.90;;;;;;5076988;28;20090;-61
2022/01/10 03:51:19;;;;;;;3.47;1.50;;;9.20;99.90;;;;;;5050078;28;1283436;-61
2022/01/10 03:53:46;;;;;;;4.72;1.60;;;9.10;99.90;;;;;;5078222;28;20445;-61
2022/01/10 03:56:14;;;;;;;2.63;1.40;;;9.10;99.90;;;;;;5078111;28;20054;-61
2022/01/10 03:58:45;;;;;;;7.25;1.60;;;9.00;99.90;;;;;;5078396;28;20032;-61
2022/01/10 04:01:13;;;;;;;3.00;1.10;;;8.90;99.90;;;;;;5096570;28;20128;-61
2022/01/10 04:03:46;;;;;;;1.77;1.08;;;8.90;99.90;;;;;;5062263;28;20031;-60
2022/01/10 04:06:15;;;;;;;2.70;1.33;;;8.90;99.90;;;;;;5077905;28;20044;-60
2022/01/10 04:08:42;;;;;;;6.65;1.65;;;8.90;99.90;;;;;;5094753;28;20087;-60
2022/01/10 04:11:11;;;;;;;2.45;1.45;;;8.80;99.90;;;;;;5077396;28;20068;-60
2022/01/10 04:13:40;;;;;;;2.45;1.73;;;8.90;99.90;;;;;;5077768;28;20062;-61
2022/01/10 04:16:08;;;;;;;3.47;1.50;;;8.90;99.90;;;;;;5077773;28;20048;-61
2022/01/10 04:18:35;;;;;;;4.13;1.35;;;8.90;99.90;;;;;;5077804;28;20086;-61
2022/01/10 04:21:03;;;;;;;2.00;1.15;;;9.00;99.90;;;;;;5095637;28;20055;-61
2022/01/10 04:23:31;;;;;;;2.90;1.20;;;9.00;99.90;;;;;;5077723;28;20036;-60
2022/01/10 04:25:58;;;;;;;2.70;1.58;;;8.90;99.90;;;;;;5077681;28;20051;-61
2022/01/10 04:28:27;;;;;;;3.47;1.35;;;8.90;99.90;;;;;;5077351;28;20032;-60
2022/01/10 04:30:55;;;;;;;2.78;1.52;;;8.90;99.90;;;;;;5077613;28;20486;-61
2022/01/10 04:33:28;;;;;;;3.85;1.40;;;8.90;99.90;;;;;;5095403;28;20036;-60
2022/01/10 04:35:58;;;;;;;3.78;2.30;;;8.90;99.90;;;;;;5077340;28;20048;-61
2022/01/10 04:38:27;;;;;;;1.95;0.98;;;9.00;99.90;;;;;;5077468;28;20079;-61
2022/01/10 04:40:55;;;;;;;2.78;1.40;;;9.10;99.90;;;;;;5044528;28;20090;-61
2022/01/10 04:43:23;;;;;;;2.72;1.30;;;9.10;99.90;;;;;;5077120;28;20109;-61
2022/01/10 04:45:54;;;;;;;3.17;1.52;;;9.10;99.90;;;;;;5077424;28;20047;-61
2022/01/10 04:48:21;;;;;;;3.17;1.48;;;9.00;99.90;;;;;;5077107;28;20044;-61
2022/01/10 04:51:33;;;;;;;2.00;1.58;;;9.00;99.90;;;;;;5077038;28;20075;-61
2022/01/10 04:53:48;;;;;;;4.13;1.33;;;9.00;99.90;;;;;;5072010;28;20138;-61
2022/01/10 04:56:17;;;;;;;2.63;1.52;;;9.10;99.90;;;;;;5077080;28;20047;-60
2022/01/10 04:58:49;;;;;;;3.55;1.52;;;9.10;99.90;;;;;;5093671;28;20490;-60
2022/01/10 05:01:17;;;;;;;3.42;1.67;;;9.10;99.90;;;;;;5076462;28;20079;-61
2022/01/10 05:03:47;;;;;;;2.30;1.33;;;9.20;99.90;;;;;;5076852;28;20536;-60
2022/01/10 05:06:15;;;;;;;7.00;1.73;;;9.20;99.90;;;;;;5059928;28;20036;-60
2022/01/10 05:08:43;;;;;;;2.20;1.25;;;9.30;99.90;;;;;;5076778;28;20044;-60
2022/01/10 05:11:16;;;;;;;3.15;1.98;;;9.30;99.90;;;;;;5076556;28;20040;-60
2022/01/10 05:13:44;;;;;;;2.35;1.60;;;9.30;99.90;;;;;;5076576;28;20102;-60
2022/01/10 05:16:14;;;;;;;2.85;1.40;;;9.30;99.90;;;;;;5076361;28;20032;-60
2022/01/10 05:18:41;;;;;;;3.00;1.73;;;9.30;99.90;;;;;;5076102;28;20593;-60
2022/01/10 05:21:12;;;;;;;7.18;2.25;;;9.30;99.90;;;;;;5076480;28;20082;-60
2022/01/10 05:23:39;;;;;;;3.47;1.95;;;9.20;99.90;;;;;;5094423;28;20126;-60
2022/01/10 05:26:07;;;;;;;3.22;1.77;;;9.20;99.90;;;;;;5076370;28;20054;-60
2022/01/10 05:28:37;;;;;;;3.47;2.05;;;9.20;99.90;;;;;;5076462;28;20036;-60
2022/01/10 05:31:05;;;;;;;4.35;2.10;;;9.20;99.90;;;;;;5060079;28;20087;-60
2022/01/10 05:33:43;;;;;;;4.60;2.40;;;9.20;99.90;;;;;;5076456;28;20067;-60
2022/01/10 05:36:11;;;;;;;5.63;3.30;;;9.20;99.90;;;;;;5094289;28;20140;-60
2022/01/10 05:38:41;;;;;;;4.38;2.45;;;9.10;99.90;;;;;;5076250;28;20722;-60
2022/01/10 05:41:09;;;;;;;4.53;2.42;;;9.10;99.90;;;;;;5094157;28;20465;-60
2022/01/10 05:43:38;;;;;;;2.78;1.45;;;9.20;99.90;;;;;;5076260;28;20048;-60
2022/01/10 05:46:08;;;;;;;4.55;1.95;;;9.10;99.90;;;;;;5076506;28;20119;-60
2022/01/10 05:48:43;;;;;;;3.70;2.17;;;9.00;99.90;;;;;;5076075;28;20482;-60
2022/01/10 05:51:11;;;;;;;3.03;2.10;;;9.00;99.90;;;;;;5076072;28;20044;-60
2022/01/10 05:53:39;;;;;;;4.65;2.20;;;9.10;99.90;;;;;;5075796;28;20093;-60
2022/01/10 05:56:08;;;;;;;3.58;1.55;;;9.20;99.90;;;;;;5075780;28;20490;-60
2022/01/10 05:58:49;;;;;;;4.65;2.97;;;9.30;99.90;;;;;;5058916;28;20082;-60
2022/01/10 06:01:19;;;;;;;3.03;2.00;;;9.30;99.90;;;;;;5059594;28;20043;-60
2022/01/10 06:03:52;;;;;;;4.05;2.10;;;9.40;99.90;;;;;;5075515;28;20094;-60
2022/01/10 06:06:26;;;;;;;2.38;1.67;;;9.40;99.90;;;;;;5075599;28;20085;-60
2022/01/10 06:08:54;;;;;;;6.00;3.10;;;9.50;99.90;;;;;;5075652;28;20378;-60
2022/01/10 06:11:21;;;;;;;7.18;1.88;;;9.50;99.90;;;;;;5059186;28;20035;-60
2022/01/10 06:13:50;;;;;;;4.10;1.88;;;9.50;99.90;;;;;;5093579;28;20032;-60
2022/01/10 06:16:18;;;;;;;3.03;1.65;;;9.60;99.90;;;;;;5058793;28;20052;-60
2022/01/10 06:18:46;;;;;;;7.78;1.70;;;9.60;99.90;;;;;;5075465;28;20089;-60
2022/01/10 06:21:14;;;;;;;4.18;1.55;;;9.50;99.90;;;;;;5093435;28;20055;-60
2022/01/10 06:23:42;;;;;;;2.95;1.52;;;9.50;99.90;;;;;;5075770;28;20043;-60
2022/01/10 06:26:10;;;;;;;3.30;1.65;;;9.50;99.90;;;;;;5090327;28;20077;-61
2022/01/10 06:28:39;;;;;;;3.22;1.90;;;9.40;99.90;;;;;;5096823;28;20031;-61
2022/01/10 06:31:08;;;;;;;2.42;1.23;;;9.50;99.90;;;;;;5097583;28;20035;-61
2022/01/10 06:33:44;;;;;;;;;;;9.50;99.90;;;;;;5079438;28;20044;-61
2022/01/10 06:36:12;;;;;;;3.13;1.50;;;9.50;99.90;;;;;;5092925;28;20345;-61
2022/01/10 06:38:42;;;;;;;4.18;2.05;;;9.40;99.90;;;;;;5094214;28;20043;-61
2022/01/10 06:41:10;;;;;;;3.00;1.08;;;9.30;99.90;;;;;;5098818;28;20032;-61
2022/01/10 06:43:39;;;;;;;3.63;1.38;;;9.30;99.90;;;;;;5097687;28;20152;-61
2022/01/10 06:46:09;;;;;;;2.42;1.45;;;9.20;99.90;;;;;;5077989;28;20135;-61
2022/01/10 06:48:38;;;;;;;2.00;1.23;;;9.20;99.90;;;;;;5094121;28;20040;-61
2022/01/10 06:51:06;;;;;;;3.53;2.38;;;9.30;99.90;;;;;;5094738;28;20043;-61
2022/01/10 06:53:34;;;;;;;4.82;2.13;;;9.20;99.90;;;;;;5079805;28;20051;-61
2022/01/10 06:56:04;;;;;;;4.05;1.50;;;9.20;99.90;;;;;;5090592;28;20487;-61
2022/01/10 06:58:34;;;;;;;4.53;1.75;;;9.20;99.90;;;;;;5096801;28;20113;-61
2022/01/10 07:01:05;;;;;;;4.40;2.30;;;9.20;99.90;;;;;;5097370;28;20440;-61
2022/01/10 07:03:33;;;;;;;3.05;1.90;;;9.20;99.90;;;;;;5113618;28;20038;-61
2022/01/10 07:06:21;;;;;;;2.55;1.95;;;9.20;99.90;;;;;;5087274;28;20058;-61
2022/01/10 07:08:50;;;;;;;2.92;1.83;;;9.20;99.90;;;;;;5082900;28;20632;-61
2022/01/10 07:11:23;;;;;;;8.60;1.70;;;9.30;99.90;;;;;;5096066;28;20039;-62
2022/01/10 07:13:52;;;;;;;2.40;1.50;;;9.30;99.90;;;;;;5109706;28;20043;-62
2022/01/10 07:16:21;;;;;;;2.20;1.23;;;9.40;99.90;;;;;;5078133;28;20437;-61
2022/01/10 07:18:55;;;;;;;2.05;1.30;;;9.40;99.90;;;;;;5090721;28;20488;-61
2022/01/10 07:21:33;;;;;;;3.10;1.10;;;9.40;99.90;;;;;;5095583;28;20035;-61
2022/01/10 07:24:01;;;;;;;3.22;1.48;;;9.40;99.90;;;;;;5057714;28;20063;-61
2022/01/10 07:26:28;;;;;;;4.95;2.58;;;9.50;99.90;;;;;;5111979;28;20035;-60
2022/01/10 07:28:56;;;;;;;3.47;1.65;;;9.50;99.90;;;;;;5111661;28;20036;-60
2022/01/10 07:31:24;;;;;;;4.07;2.17;;;9.50;99.90;;;;;;5105278;28;20044;-61
2022/01/10 07:33:52;;;;;;;2.08;1.50;;;9.60;99.90;;;;;;5110765;28;20173;-60
2022/01/10 07:36:20;;;;;;;4.13;2.40;;;9.60;99.90;;;;;;5108972;28;20051;-61
2022/01/10 07:38:47;;;;;;;6.22;4.70;;;9.60;99.90;;;;;;5088230;28;20054;-61
2022/01/10 07:41:15;;;;;;;13.48;7.35;;;9.70;99.90;;;;;;5076803;28;20089;-61
2022/01/10 07:43:43;;;;;;;10.65;6.63;;;9.70;99.90;;;;;;5094343;28;20048;-61
2022/01/10 07:46:11;;;;;;;10.00;7.05;;;9.70;99.90;;;;;;5077123;28;20082;-61
2022/01/10 07:48:40;;;;;;;11.75;6.72;;;9.70;99.90;;;;;;5077571;28;20051;-61
2022/01/10 07:51:11;;;;;;;8.32;4.57;;;9.80;99.90;;;;;;5095936;28;20047;-61
2022/01/10 07:53:41;;;;;;;4.32;3.17;;;9.80;99.90;;;;;;5078143;28;20546;-61
2022/01/10 07:56:09;;;;;;;6.93;2.83;;;9.80;99.90;;;;;;5096136;28;20546;-61
2022/01/10 07:58:37;;;;;;;4.65;2.75;;;9.80;99.90;;;;;;5095945;28;20048;-61
2022/01/10 08:01:05;;;;;;;3.40;2.00;;;9.80;99.90;;;;;;5095829;28;20370;-61
2022/01/10 08:03:33;;;;;;;3.88;2.30;;;9.70;99.90;;;;;;5095847;28;20048;-61
2022/01/10 08:06:01;;;;;;;6.85;3.00;;;9.80;99.90;;;;;;5061330;28;20048;-61
2022/01/10 08:08:28;;;;;;;4.75;3.42;;;9.70;99.90;;;;;;5095851;28;20401;-60
2022/01/10 08:10:56;;;;;;;6.30;3.53;;;9.80;99.90;;;;;;5095666;28;20063;-61
2022/01/10 08:13:24;;;;;;;5.45;3.78;;;9.80;99.90;;;;;;5077749;28;20067;-61
2022/01/10 08:15:51;;;;;;;7.15;4.68;;;9.80;99.90;;;;;;5095811;28;20047;-60
2022/01/10 08:18:19;;;;;;;6.43;3.90;;;9.80;99.90;;;;;;5095425;28;20055;-60
2022/01/10 08:20:47;;;;;;;9.88;4.90;;;9.90;99.90;;;;;;5095243;28;20048;-60
2022/01/10 08:23:15;;;;;;;8.65;4.88;;;9.90;99.90;;;;;;5095611;28;20044;-60
2022/01/10 08:25:42;;;;;;;7.65;4.95;;;10.00;99.90;;;;;;5095312;28;20544;-60
2022/01/10 08:28:10;;;;;;;7.53;5.10;;;10.00;99.90;;;;;;5095294;28;20111;-60
2022/01/10 08:30:37;;;;;;;8.40;5.90;;;10.00;99.90;;;;;;5094982;28;20059;-60
2022/01/10 08:33:05;;;;;;;9.00;6.90;;;10.10;99.90;;;;;;5076683;28;20051;-60
2022/01/10 08:35:33;;;;;;;9.23;6.78;;;10.10;99.90;;;;;;5095099;28;20479;-60
2022/01/10 08:38:01;;;;;;;10.60;6.38;;;10.10;99.90;;;;;;5095413;28;20123;-60
2022/01/10 08:40:30;;;;;;;10.23;4.97;;;10.20;99.90;;;;;;5095212;28;20078;-61
2022/01/10 08:42:57;;;;;;;8.70;5.93;;;10.20;99.90;;;;;;5076706;28;20048;-60
2022/01/10 08:45:25;;;;;;;8.43;5.70;;;10.20;99.90;;;;;;5077010;28;20044;-60
2022/01/10 08:47:53;;;;;;;8.20;5.50;;;10.20;99.90;;;;;;5077221;28;20051;-61
2022/01/10 08:50:23;;;;;;;9.27;5.50;;;10.20;99.90;;;;;;5060213;28;20044;-61
2022/01/10 08:52:51;;;;;;;5.63;4.47;;;10.20;99.90;;;;;;5076789;28;20082;-60
2022/01/10 08:55:18;;;;;;;8.43;6.82;;;10.20;99.90;;;;;;5093940;28;20094;-61
2022/01/10 08:57:46;;;;;;;9.70;5.63;;;10.20;99.90;;;;;;5076913;28;20097;-61
2022/01/10 09:00:14;;;;;;;8.15;5.82;;;10.30;99.90;;;;;;5094722;28;20081;-60
2022/01/10 09:02:41;;;;;;;8.63;5.68;;;10.20;99.90;;;;;;5095353;28;20059;-60
2022/01/10 09:05:09;;;;;;;8.60;4.88;;;10.30;99.90;;;;;;5094734;28;20486;-61
2022/01/10 09:07:37;;;;;;;7.35;4.00;;;10.30;99.90;;;;;;5094664;28;20040;-60
2022/01/10 09:10:06;;;;;;;6.40;4.07;;;10.30;99.90;;;;;;5094602;28;20490;-60
2022/01/10 09:12:33;;;;;;;7.32;4.28;;;10.30;99.90;;;;;;5094650;28;20055;-61
2022/01/10 09:15:01;;;;;;;10.15;4.70;;;10.30;99.90;;;;;;5076483;28;20097;-60
2022/01/10 09:17:28;;;;;;;6.03;4.07;;;10.40;99.90;;;;;;5094542;28;20048;-60
2022/01/10 09:19:56;;;;;;;5.82;4.38;;;10.40;99.90;;;;;;5094393;28;20048;-60
2022/01/10 09:22:24;;;;;;;6.05;3.30;;;10.40;99.90;;;;;;5094460;28;20036;-61
2022/01/10 09:24:51;;;;;;;9.18;3.70;;;10.50;99.90;;;;;;5076428;28;20105;-60
2022/01/10 09:27:19;;;;;;;7.80;4.75;;;10.50;99.90;;;;;;5094259;28;20040;-60
2022/01/10 09:29:47;;;;;;;5.78;2.88;;;10.50;99.90;;;;;;5094095;28;20135;-61
2022/01/10 09:32:14;;;;;;;7.18;4.50;;;10.50;99.90;;;;;;5094216;28;20051;-61
2022/01/10 09:34:42;;;;;;;10.40;4.38;;;10.60;99.90;;;;;;5076450;28;20142;-61
2022/01/10 09:37:10;;;;;;;5.68;3.20;;;10.50;99.90;;;;;;5093984;28;20070;-61
2022/01/10 09:39:37;;;;;;;4.22;2.78;;;10.50;99.90;;;;;;5094038;28;20482;-61
2022/01/10 09:42:05;;;;;;;4.45;2.80;;;10.50;99.90;;;;;;5094056;28;20079;-61
2022/01/10 09:44:34;;;;;;;7.15;3.20;;;10.60;99.90;;;;;;5076027;28;20039;-61
2022/01/10 09:47:02;;;;;;;6.45;3.15;;;10.50;99.90;;;;;;5075767;28;20482;-61
2022/01/10 09:49:29;;;;;;;6.25;4.40;;;10.60;99.90;;;;;;5093883;28;20055;-61
2022/01/10 09:51:57;;;;;;;5.35;3.40;;;10.60;99.90;;;;;;5093409;28;20060;-61
2022/01/10 09:54:25;;;;;;;5.10;4.10;;;10.60;99.90;;;;;;5075681;28;20051;-61
2022/01/10 09:56:52;;;;;;;5.78;3.53;;;10.50;99.90;;;;;;5076099;28;20052;-61
2022/01/10 09:59:20;;;;;;;4.70;3.45;;;10.60;99.90;;;;;;5093509;28;20048;-61
2022/01/10 10:01:51;;;;;;;4.22;3.40;;;10.60;99.90;;;;;;5093580;28;20052;-61
2022/01/10 10:04:19;;;;;;;7.00;3.75;;;10.60;99.90;;;;;;5093511;28;20051;-61
2022/01/10 10:06:47;;;;;;;10.77;3.92;;;10.60;99.90;;;;;;5075242;28;20083;-60
2022/01/10 10:09:16;;;;;;;5.38;4.25;;;10.60;99.90;;;;;;5093976;28;20402;-60
2022/01/10 10:11:51;;;;;;;6.47;4.60;;;10.60;99.90;;;;;;5093726;28;20040;-61
2022/01/10 10:14:22;;;;;;;7.95;4.80;;;10.60;99.90;;;;;;5075601;28;20089;-60
2022/01/10 10:16:53;;;;;;;6.53;4.68;;;10.60;99.90;;;;;;5093568;28;20035;-60
2022/01/10 10:19:22;;;;;;;9.15;4.53;;;10.60;99.90;;;;;;5093302;28;20051;-60
2022/01/10 10:21:51;;;;;;;7.63;5.55;;;10.60;99.90;;;;;;5075466;28;20040;-60
2022/01/10 10:24:20;;;;;;;8.68;4.90;;;10.60;99.90;;;;;;5093315;28;20058;-60
2022/01/10 10:26:48;;;;;;;9.68;5.82;;;10.60;99.90;;;;;;5093265;28;20043;-61
2022/01/10 10:29:18;;;;;;;8.82;6.18;;;10.60;99.90;;;;;;5093248;28;20039;-61
2022/01/10 10:31:54;;;;;;;23.15;9.90;;;10.60;99.90;;;;;;5093130;28;20094;-61
2022/01/10 10:34:27;;;;;;;16.38;9.40;;;10.60;99.90;;;;;;5093413;28;20040;-61
2022/01/10 10:37:05;;;;;;;12.23;7.32;;;10.60;99.90;;;;;;5093205;28;20037;-61
2022/01/10 10:39:35;;;;;;;13.07;6.68;;;10.60;99.90;;;;;;5093276;28;20565;-60
2022/01/10 10:42:08;;;;;;;10.93;6.25;;;10.60;99.90;;;;;;5093311;28;20490;-60
2022/01/10 10:44:37;;;;;;;12.50;7.60;;;10.60;99.90;;;;;;5093321;28;20044;-60
2022/01/10 10:47:05;;;;;;;10.80;6.97;;;10.60;99.90;;;;;;5093264;28;20043;-61
2022/01/10 10:49:37;;;;;;;16.67;8.75;;;10.60;99.90;;;;;;5093188;28;20094;-60
2022/01/10 10:52:08;;;;;;;14.38;8.75;;;10.60;99.90;;;;;;5093317;28;20070;-60
2022/01/10 10:54:36;;;;;;;13.35;8.43;;;10.70;99.90;;;;;;5093143;28;20494;-60
2022/01/10 10:57:06;;;;;;;12.93;7.80;;;10.70;99.90;;;;;;5075310;28;20379;-61
2022/01/10 10:59:37;;;;;;;22.10;8.45;;;10.70;99.90;;;;;;5058574;28;20064;-61
2022/01/10 11:02:05;;;;;;;15.45;8.40;;;10.70;99.90;;;;;;5075780;28;20137;-61
2022/01/10 11:04:34;;;;;;;21.98;11.82;;;10.70;99.90;;;;;;5075410;28;20044;-61
2022/01/10 11:07:03;;;;;;;20.95;12.50;;;10.70;99.90;;;;;;5093186;28;20036;-61
2022/01/10 11:09:31;;;;;;;27.88;15.60;;;10.70;99.90;;;;;;5092880;28;20044;-61
2022/01/10 11:11:58;;;;;;;24.30;15.32;;;10.70;99.90;;;;;;5093316;28;20037;-61
2022/01/10 11:14:26;;;;;;;20.38;11.95;;;10.70;99.90;;;;;;5093138;28;20044;-61
2022/01/10 11:16:56;;;;;;;19.42;11.68;;;10.70;99.90;;;;;;5093775;28;20040;-61
2022/01/10 11:19:28;;;;;;;18.70;11.77;;;10.70;99.90;;;;;;5078940;28;20042;-60
2022/01/10 11:22:09;;;;;;;14.60;9.38;;;10.70;99.90;;;;;;5097004;28;20051;-60
2022/01/10 11:24:48;;;;;;;10.90;7.80;;;10.70;99.90;;;;;;5096787;28;20113;-60
2022/01/10 11:27:39;;;;;;;13.10;6.93;;;10.70;99.90;;;;;;5096636;28;20070;-60
2022/01/10 11:30:38;;;;;;;20.05;5.78;;;10.70;99.90;;;;;;5078847;28;20062;-60
2022/01/10 11:33:26;;;;;;;5.18;3.50;;;10.60;99.90;;;;;;5096588;28;20067;-60
2022/01/10 11:35:55;;;;;;;8.13;4.40;;;10.60;99.90;;;;;;5096752;28;20047;-60
2022/01/10 11:38:29;;;;;;;9.02;5.22;;;10.60;99.90;;;;;;5096748;28;20594;-60
2022/01/10 11:41:00;;;;;;;7.97;4.30;;;10.60;99.90;;;;;;5096311;28;20044;-60
2022/01/10 11:43:47;;;;;;;12.23;7.10;;;10.60;99.90;;;;;;5096200;28;20036;-60
2022/01/10 11:46:25;;;;;;;10.77;5.60;;;10.50;99.90;;;;;;5077865;28;20395;-60
2022/01/10 11:49:13;;;;;;;8.65;5.20;;;10.60;99.90;;;;;;5096057;28;20402;-60
2022/01/10 11:51:50;;;;;;;9.00;5.18;;;10.50;99.90;;;;;;5095700;28;20048;-60
2022/01/10 11:54:34;;;;;;;6.78;4.20;;;10.50;99.90;;;;;;5096120;28;20048;-60
2022/01/10 11:57:07;;;;;;;13.52;4.47;;;10.50;99.90;;;;;;5096189;28;20093;-60
2022/01/10 11:59:39;;;;;;;6.95;3.20;;;10.40;99.90;;;;;;5096207;28;20043;-60
2022/01/10 12:02:14;;;;;;;4.35;3.15;;;10.40;99.90;;;;;;5096010;28;20047;-60
2022/01/10 12:04:53;;;;;;;4.57;2.92;;;10.20;99.90;;;;;;5061023;28;20044;-60
2022/01/10 12:07:22;;;;;;;4.38;2.22;;;10.20;99.90;;;;;;5078073;28;20044;-60
2022/01/10 12:09:51;;;;;;;7.15;2.75;;;10.20;99.90;;;;;;5095597;28;20040;-60
2022/01/10 12:12:21;;;;;;;7.65;3.38;;;10.00;99.90;;;;;;5060698;28;20048;-61
2022/01/10 12:14:51;;;;;;;5.47;3.50;;;9.90;99.90;;;;;;5095895;28;20387;-60
2022/01/10 12:17:20;;;;;;;5.07;3.72;;;10.00;99.90;;;;;;5095237;28;20032;-60
2022/01/10 12:19:48;;;;;;;4.35;1.92;;;9.90;99.90;;;;;;5095405;28;20445;-60
2022/01/10 12:22:17;;;;;;;4.78;2.42;;;10.00;99.90;;;;;;5095463;28;20552;-60
2022/01/10 12:24:45;;;;;;;6.10;3.33;;;9.90;99.90;;;;;;5095390;28;20044;-60
2022/01/10 12:27:13;;;;;;;3.70;2.15;;;9.90;99.90;;;;;;5095498;28;20069;-60
2022/01/10 12:29:43;;;;;;;3.65;2.05;;;9.90;99.90;;;;;;5094251;28;20052;-60
2022/01/10 12:32:11;;;;;;;4.93;1.65;;;10.00;99.90;;;;;;5095370;28;20078;-60
2022/01/10 12:34:41;;;;;;;4.28;1.75;;;9.90;99.90;;;;;;5095507;28;20090;-60
2022/01/10 12:37:09;;;;;;;6.72;1.80;;;10.00;99.90;;;;;;5077674;28;20070;-60
2022/01/10 12:39:38;;;;;;;4.97;2.35;;;9.90;99.90;;;;;;5095075;28;20051;-60
2022/01/10 12:42:06;;;;;;;2.90;2.15;;;10.00;99.90;;;;;;5060786;28;20051;-61
2022/01/10 12:44:34;;;;;;;5.28;2.08;;;10.00;99.90;;;;;;5095159;28;20048;-61
2022/01/10 12:47:02;;;;;;;4.63;2.67;;;9.90;99.90;;;;;;5095398;28;20051;-61
2022/01/10 12:49:29;;;;;;;8.43;4.07;;;9.90;99.90;;;;;;5077241;28;20505;-61
2022/01/10 12:51:58;;;;;;;9.07;3.78;;;9.90;99.90;;;;;;5094846;28;20048;-61
2022/01/10 12:54:30;;;;;;;5.68;3.78;;;9.80;99.90;;;;;;5077087;28;20048;-61
2022/01/10 12:57:00;;;;;;;7.47;4.28;;;9.80;99.90;;;;;;5076178;28;20052;-61
2022/01/10 12:59:30;;;;;;;5.13;3.58;;;9.80;99.90;;;;;;5076791;28;20047;-61
2022/01/10 13:02:00;;;;;;;5.45;3.28;;;9.80;99.90;;;;;;5077377;28;20494;-61
2022/01/10 13:04:37;;;;;;;5.30;2.47;;;9.80;99.90;;;;;;5095146;28;20364;-61
2022/01/10 13:07:14;;;;;;;4.80;2.50;;;9.70;99.90;;;;;;5077126;28;20048;-61
2022/01/10 13:09:53;;;;;;;3.90;2.13;;;9.70;99.90;;;;;;5094750;28;20080;-61
2022/01/10 13:12:28;;;;;;;5.18;2.70;;;9.60;99.90;;;;;;5094875;28;20360;-61